Bruno, Minnesota
Current Conditions -  °F | °C
As of 10:14 PM on Tuesday 27 Jan 2015 (Local Time) from KMZH Reporting Station
Overcast Overcast  
Wind Chill: 24°   Ceiling: 1300
Heat Index: 30°   Visibility: 10mi
Dew Point: 25°   Wind: 6mph
Humidity: 80%   Direction: 180°S
Pressure: 30.08"   Gusts: NA
Location:  46.28°N, 92.66°W
Report Text: KMZH 280414Z AUTO 18005KT 10SM OVC013 M01/M04 A3008 RMK AO2
Loading
Personal Weather Stations






























Interactive Weather Map New forecast layout! Learn more

10-Day Weather Forecast

Advertisements
Track Severe Weather on mobile